Time;durP1;ratioP1;P1;durP2;ratioP2;P2;SDS_P1;SDS_P2;PMS_P1;PMS_P2;Temp;Humidity;BMP_temperature;BMP_pressure;BME280_temperature;BME280_humidity;BME280_pressure;Samples;Min_cycle;Max_cycle;Signal;HPM_P1;HPM_P2
2021/10/02 00:44:47;;;;;;;34.30;18.95;;;;;;;8.11;70.48;98938.25;4949499;29;20074;-77
2021/10/02 00:47:18;;;;;;;34.78;19.60;;;;;;;8.08;70.08;98934.16;4934378;29;20023;-79
2021/10/02 00:49:44;;;;;;;43.03;23.33;;;;;;;8.07;70.37;98943.44;4951572;29;20427;-79
2021/10/02 00:52:12;;;;;;;41.88;22.30;;;;;;;8.06;70.35;98939.06;4951244;29;20031;-79
2021/10/02 00:54:38;;;;;;;46.33;24.30;;;;;;;8.02;70.37;98933.28;4950558;28;20031;-79
2021/10/02 00:57:05;;;;;;;43.47;22.02;;;;;;;8.00;69.89;98931.91;4932783;29;20031;-79
2021/10/02 00:59:32;;;;;;;41.67;21.90;;;;;;;7.94;69.38;98933.00;4950687;29;20058;-79
2021/10/02 01:02:17;;;;;;;42.80;22.50;;;;;;;7.91;70.10;98928.91;4949761;29;20035;-77
2021/10/02 01:04:51;;;;;;;45.58;23.80;;;;;;;7.95;70.46;98929.97;4950913;29;20051;-78
2021/10/02 01:07:26;;;;;;;42.55;22.55;;;;;;;7.97;70.38;98918.81;4933637;29;20035;-78
2021/10/02 01:10:18;;;;;;;38.05;20.58;;;;;;;7.97;70.13;98925.06;4932586;29;20027;-78
2021/10/02 01:12:59;;;;;;;36.85;20.40;;;;;;;8.01;70.59;98917.97;4950593;29;20031;-78
2021/10/02 01:15:31;;;;;;;37.75;20.30;;;;;;;8.01;70.41;98917.97;4950129;29;20090;-78
2021/10/02 01:18:01;;;;;;;38.55;19.67;;;;;;;8.02;70.25;98919.63;4950452;29;20779;-78
2021/10/02 01:21:07;;;;;;;34.70;20.52;;;;;;;8.03;70.23;98918.53;4950553;29;20110;-78
2021/10/02 01:23:32;;;;;;;38.83;20.73;;;;;;;8.05;70.48;98905.44;4950739;29;20117;-77
2021/10/02 01:26:11;;;;;;;37.70;21.45;;;;;;;8.11;70.11;98905.44;4950069;29;20122;-77
2021/10/02 01:28:40;;;;;;;36.88;20.10;;;;;;;8.15;70.59;98910.09;4949711;29;20034;-78
2021/10/02 01:31:21;;;;;;;31.70;18.08;;;;;;;8.16;71.00;98905.47;4950100;29;20350;-77
2021/10/02 01:34:03;;;;;;;31.00;19.08;;;;;;;8.22;70.94;98918.06;4950753;29;20499;-78
2021/10/02 01:47:56;;;;;;;26.73;16.38;;;;;;;8.37;70.73;98897.31;4942865;29;20070;-77
2021/10/02 01:50:25;;;;;;;28.83;17.73;;;;;;;8.40;70.91;98897.59;4950307;29;20495;-78
2021/10/02 01:52:53;;;;;;;24.37;16.13;;;;;;;8.42;71.05;98895.41;4950513;29;20082;-77
2021/10/02 01:55:23;;;;;;;26.05;16.15;;;;;;;8.46;71.14;98890.22;4950344;29;20035;-78
2021/10/02 01:57:56;;;;;;;27.63;16.42;;;;;;;8.52;71.16;98896.56;4948886;29;20038;-78
2021/10/02 02:00:22;;;;;;;27.42;15.88;;;;;;;8.54;71.64;98892.44;4932793;29;20373;-78
2021/10/02 02:02:57;;;;;;;25.50;15.38;;;;;;;8.55;71.30;98888.63;4948732;29;20019;-77
2021/10/02 02:05:27;;;;;;;22.83;14.60;;;;;;;8.49;71.06;98889.69;4949361;28;20046;-79
2021/10/02 02:07:57;;;;;;;25.67;15.50;;;;;;;8.52;71.57;98882.88;4949769;29;20031;-78
2021/10/02 02:10:26;;;;;;;23.85;15.38;;;;;;;8.56;71.44;98887.53;4949637;29;20055;-78
2021/10/02 02:12:54;;;;;;;22.80;14.52;;;;;;;8.58;71.24;98887.25;4950328;29;20472;-79
2021/10/02 02:15:20;;;;;;;23.48;15.25;;;;;;;8.57;71.16;98875.50;4950268;29;20490;-78
2021/10/02 02:17:51;;;;;;;25.80;15.38;;;;;;;8.58;71.32;98882.63;4949917;29;20027;-78
2021/10/02 02:20:30;;;;;;;23.42;14.95;;;;;;;8.58;70.81;98877.13;4949839;29;20027;-78
2021/10/02 02:22:56;;;;;;;25.20;15.57;;;;;;;8.60;71.63;98876.84;4948800;29;20387;-78
2021/10/02 02:25:22;;;;;;;24.98;15.50;;;;;;;8.61;71.65;98873.88;4950091;29;20035;-78
2021/10/02 02:27:47;;;;;;;23.75;14.20;;;;;;;8.61;71.31;98868.41;4949642;29;20027;-78
2021/10/02 02:30:13;;;;;;;19.90;13.23;;;;;;;8.59;71.01;98867.00;4949704;29;20027;-79
2021/10/02 02:32:40;;;;;;;24.25;13.70;;;;;;;8.55;71.16;98868.69;4950062;29;20103;-78
2021/10/02 02:35:07;;;;;;;21.75;13.38;;;;;;;8.52;71.20;98859.09;4949775;29;20031;-77
2021/10/02 02:37:33;;;;;;;22.45;13.93;;;;;;;8.52;71.62;98861.81;4949562;29;20030;-77
2021/10/02 02:40:00;;;;;;;19.05;12.98;;;;;;;8.52;70.93;98861.81;4949481;29;20027;-78
2021/10/02 02:42:25;;;;;;;21.20;14.13;;;;;;;8.51;71.00;98864.84;4949886;29;20127;-77
2021/10/02 02:44:52;;;;;;;21.08;12.77;;;;;;;8.49;71.56;98856.91;4949436;29;20487;-77
2021/10/02 02:47:23;;;;;;;18.42;12.63;;;;;;;8.45;71.03;98859.34;4949363;29;20178;-78
2021/10/02 02:49:55;;;;;;;20.95;12.40;;;;;;;8.41;70.94;98854.66;4949139;29;20125;-78
2021/10/02 02:52:25;;;;;;;20.45;13.07;;;;;;;8.39;70.80;98860.41;4949817;29;20035;-78
2021/10/02 02:55:03;;;;;;;18.27;12.57;;;;;;;8.37;70.94;98854.41;4949325;29;20027;-77
2021/10/02 02:57:34;;;;;;;19.02;12.35;;;;;;;8.35;71.11;98859.31;4947524;29;20118;-77
2021/10/02 03:00:07;;;;;;;18.92;12.95;;;;;;;8.31;70.92;98853.59;4949147;29;20190;-77
2021/10/02 03:02:38;;;;;;;20.08;13.20;;;;;;;8.32;70.95;98863.44;4948919;29;20023;-77
2021/10/02 03:05:06;;;;;;;18.45;12.10;;;;;;;8.35;70.83;98859.31;4949484;29;20055;-78
2021/10/02 03:07:33;;;;;;;18.50;12.27;;;;;;;8.39;71.34;98844.03;4949159;29;20106;-78
2021/10/02 03:10:01;;;;;;;18.02;11.27;;;;;;;8.40;71.45;98853.88;4949020;29;20546;-79
2021/10/02 03:12:33;;;;;;;19.38;12.50;;;;;;;8.41;70.94;98843.75;4949859;29;20111;-78
2021/10/02 03:15:00;;;;;;;18.45;12.48;;;;;;;8.44;71.23;98846.75;4949365;29;20026;-78
2021/10/02 03:17:29;;;;;;;18.13;12.57;;;;;;;8.49;71.65;98845.97;4952001;28;20035;-78
2021/10/02 03:19:55;;;;;;;19.15;11.75;;;;;;;8.52;71.34;98839.97;4952578;29;20488;-78
2021/10/02 03:22:25;;;;;;;17.45;12.35;;;;;;;8.57;71.10;98844.59;4953278;29;20091;-78
2021/10/02 03:24:51;;;;;;;17.70;12.05;;;;;;;8.59;71.51;98843.25;4953802;29;20442;-78
2021/10/02 03:27:17;;;;;;;19.85;12.80;;;;;;;8.62;71.47;98836.38;4952981;29;20115;-78
2021/10/02 03:29:43;;;;;;;20.40;13.27;;;;;;;8.64;71.67;98840.50;4952608;29;20115;-78
2021/10/02 03:32:11;;;;;;;18.95;13.13;;;;;;;8.60;71.34;98833.94;4951261;29;20019;-78
2021/10/02 03:34:37;;;;;;;19.77;12.95;;;;;;;8.55;71.83;98835.88;4952849;29;20031;-78
2021/10/02 03:37:03;;;;;;;20.80;13.55;;;;;;;8.50;71.21;98836.66;4952673;29;20033;-79
2021/10/02 03:39:30;;;;;;;20.90;13.60;;;;;;;8.43;71.44;98834.19;4950368;29;20114;-79
2021/10/02 03:42:10;;;;;;;20.05;12.93;;;;;;;8.39;71.26;98832.25;4952501;29;20102;-78
2021/10/02 03:44:39;;;;;;;20.10;13.32;;;;;;;8.34;71.67;98835.81;4950993;29;20023;-78
2021/10/02 03:47:04;;;;;;;22.17;13.68;;;;;;;8.28;71.64;98835.00;4952034;29;20031;-79
2021/10/02 03:49:30;;;;;;;23.05;13.30;;;;;;;8.23;71.11;98836.88;4952540;29;20035;-79
2021/10/02 03:51:55;;;;;;;20.63;13.45;;;;;;;8.14;71.39;98833.88;4952108;29;20090;-78
2021/10/02 03:54:21;;;;;;;23.42;14.20;;;;;;;8.10;71.50;98832.78;4952607;29;20074;-78
2021/10/02 03:56:46;;;;;;;25.50;14.30;;;;;;;8.06;71.52;98840.72;4952837;29;20024;-78
2021/10/02 03:59:12;;;;;;;24.85;14.65;;;;;;;8.03;71.59;98833.84;4952119;29;20518;-78
2021/10/02 04:01:37;;;;;;;22.33;13.75;;;;;;;7.99;70.95;98834.69;4952215;29;20106;-78
2021/10/02 04:04:03;;;;;;;23.17;13.73;;;;;;;7.97;71.35;98831.41;4952345;29;20475;-78
2021/10/02 04:06:29;;;;;;;24.77;14.10;;;;;;;7.94;71.49;98837.41;4952363;29;20054;-78
2021/10/02 04:08:55;;;;;;;22.42;14.30;;;;;;;7.90;71.46;98832.47;4951802;29;20039;-78
2021/10/02 04:11:20;;;;;;;25.45;14.63;;;;;;;7.86;70.90;98836.81;4951862;29;20062;-78
2021/10/02 04:13:45;;;;;;;21.20;13.90;;;;;;;7.83;71.46;98840.09;4934662;29;20027;-77
2021/10/02 04:16:11;;;;;;;21.63;13.88;;;;;;;7.78;71.38;98833.81;4951617;29;20561;-78
2021/10/02 04:18:37;;;;;;;23.50;14.35;;;;;;;7.74;71.49;98841.72;4951802;29;20043;-78
2021/10/02 04:21:02;;;;;;;20.67;13.23;;;;;;;7.69;71.80;98842.50;4951567;29;20035;-78
2021/10/02 04:23:30;;;;;;;21.77;13.50;;;;;;;7.66;71.54;98843.03;4952156;29;20046;-78
2021/10/02 04:25:56;;;;;;;23.40;14.13;;;;;;;7.65;71.43;98846.84;4927755;29;20035;-77
2021/10/02 04:28:21;;;;;;;23.00;13.40;;;;;;;7.63;71.59;98846.31;4949997;28;20038;-78
2021/10/02 04:30:47;;;;;;;21.90;13.30;;;;;;;7.60;71.55;98842.22;4932075;29;20277;-77
2021/10/02 04:33:12;;;;;;;23.02;14.60;;;;;;;7.53;71.48;98841.63;4952440;29;20042;-78
2021/10/02 04:35:38;;;;;;;20.95;13.27;;;;;;;7.49;71.56;98839.72;4952971;29;20373;-77
2021/10/02 04:38:04;;;;;;;24.77;14.82;;;;;;;7.45;71.76;98845.69;4952602;29;20019;-77
2021/10/02 04:40:29;;;;;;;25.13;14.55;;;;;;;7.44;71.63;98841.34;4952303;29;20023;-78
2021/10/02 04:42:55;;;;;;;25.42;15.35;;;;;;;7.44;71.78;98849.53;4952992;29;20194;-79
2021/10/02 04:45:20;;;;;;;25.98;15.65;;;;;;;7.45;72.10;98842.13;4935519;29;20035;-79
2021/10/02 04:47:46;;;;;;;25.60;15.48;;;;;;;7.45;71.80;98848.44;4952441;29;20065;-78
2021/10/02 04:50:13;;;;;;;26.70;14.50;;;;;;;7.45;71.84;98853.88;4952225;29;20106;-78
2021/10/02 04:52:38;;;;;;;26.48;15.15;;;;;;;7.46;71.74;98846.50;4952631;29;20019;-79
2021/10/02 04:55:06;;;;;;;26.25;15.93;;;;;;;7.49;72.22;98847.91;4952295;29;20075;-77
2021/10/02 04:57:31;;;;;;;24.33;15.38;;;;;;;7.49;71.92;98850.63;4944906;28;20440;-77
2021/10/02 04:59:56;;;;;;;23.65;14.70;;;;;;;7.49;71.89;98851.44;4950944;29;20035;-78
2021/10/02 05:02:22;;;;;;;25.27;15.55;;;;;;;7.49;71.91;98845.97;4952063;29;20032;-80
2021/10/02 05:04:47;;;;;;;24.83;15.77;;;;;;;7.49;71.94;98843.25;4952251;29;20030;-80
2021/10/02 05:07:13;;;;;;;26.63;15.27;;;;;;;7.50;72.04;98850.34;4952315;29;20030;-78
2021/10/02 05:09:41;;;;;;;23.90;14.63;;;;;;;7.53;72.29;98851.75;4951567;29;20058;-80
2021/10/02 05:12:08;;;;;;;24.25;15.60;;;;;;;7.54;72.02;98854.19;4947781;29;20416;-80
2021/10/02 05:14:33;;;;;;;26.80;16.23;;;;;;;7.55;72.52;98849.53;4946087;29;20907;-80
2021/10/02 05:16:59;;;;;;;26.55;16.63;;;;;;;7.57;72.18;98848.19;4947278;29;20023;-81
2021/10/02 05:19:24;;;;;;;27.02;16.27;;;;;;;7.62;72.45;98852.03;4951676;29;20081;-80
2021/10/02 05:21:50;;;;;;;28.27;16.65;;;;;;;7.64;72.57;98850.69;4951957;29;20081;-80
2021/10/02 05:24:15;;;;;;;24.83;15.82;;;;;;;7.70;72.29;98854.25;4951892;29;20035;-79
2021/10/02 05:26:41;;;;;;;25.90;15.82;;;;;;;7.74;72.50;98858.09;4948508;28;20051;-79
2021/10/02 05:29:06;;;;;;;29.98;18.05;;;;;;;7.77;72.32;98857.53;4949202;29;20514;-79
2021/10/02 05:31:32;;;;;;;31.73;18.02;;;;;;;7.81;72.00;98847.72;4951289;29;20023;-80
2021/10/02 05:33:57;;;;;;;29.33;17.17;;;;;;;7.86;72.52;98853.22;4951477;29;20027;-80
2021/10/02 05:36:22;;;;;;;30.42;18.50;;;;;;;7.90;72.23;98848.06;4952095;29;20020;-79
2021/10/02 05:38:48;;;;;;;30.35;18.70;;;;;;;7.93;72.50;98850.25;4934393;28;20028;-79
2021/10/02 05:41:13;;;;;;;33.38;21.15;;;;;;;7.96;72.37;98849.69;4933962;29;20444;-80
2021/10/02 05:43:39;;;;;;;38.22;22.13;;;;;;;8.00;72.01;98845.31;4951791;29;20034;-79
2021/10/02 05:46:04;;;;;;;32.25;20.35;;;;;;;8.05;72.40;98850.00;4949953;29;20059;-79
2021/10/02 05:48:30;;;;;;;31.60;20.00;;;;;;;8.11;72.08;98850.81;4934086;29;20028;-80
2021/10/02 05:50:55;;;;;;;35.85;20.58;;;;;;;8.18;72.32;98852.19;4952484;29;20464;-80
2021/10/02 05:53:21;;;;;;;30.15;19.02;;;;;;;8.20;72.48;98855.47;4952863;29;20035;-80
2021/10/02 05:55:46;;;;;;;28.75;18.50;;;;;;;8.26;72.74;98860.94;4952819;29;20031;-80
2021/10/02 05:58:12;;;;;;;28.63;17.85;;;;;;;8.29;72.59;98860.41;4952725;29;20080;-80
2021/10/02 06:00:37;;;;;;;28.23;17.23;;;;;;;8.32;72.94;98866.16;4952166;29;20058;-80
2021/10/02 06:03:02;;;;;;;28.38;17.10;;;;;;;8.38;72.89;98857.94;4952965;29;20118;-80
2021/10/02 06:05:28;;;;;;;29.13;17.33;;;;;;;8.44;72.81;98865.91;4952911;29;20678;-80
2021/10/02 06:07:56;;;;;;;31.40;18.05;;;;;;;8.52;72.54;98872.75;4952812;29;20046;-80
2021/10/02 06:10:22;;;;;;;36.75;19.75;;;;;;;8.60;72.69;98874.13;4934802;29;20031;-80
2021/10/02 06:12:50;;;;;;;37.05;20.30;;;;;;;8.67;72.90;98866.47;4952858;29;20438;-80
2021/10/02 06:15:15;;;;;;;36.38;21.00;;;;;;;8.76;72.81;98866.75;4952059;29;20460;-79
2021/10/02 06:17:41;;;;;;;40.28;20.70;;;;;;;8.83;73.25;98872.75;4946979;28;20035;-80
2021/10/02 06:20:07;;;;;;;36.58;19.10;;;;;;;8.89;72.55;98868.94;4947547;29;20043;-80
2021/10/02 06:22:32;;;;;;;39.22;20.95;;;;;;;8.96;72.93;98871.41;4934736;29;20043;-80
2021/10/02 06:24:58;;;;;;;40.30;22.08;;;;;;;9.03;72.82;98877.38;4952350;29;20027;-80
2021/10/02 06:27:23;;;;;;;34.17;19.77;;;;;;;9.11;73.45;98870.56;4952505;29;20061;-79
2021/10/02 06:29:49;;;;;;;35.40;18.52;;;;;;;9.19;73.35;98874.63;4952735;29;20135;-77
2021/10/02 06:32:14;;;;;;;30.17;18.48;;;;;;;9.27;72.61;98870.50;4949440;29;20134;-83
2021/10/02 06:34:40;;;;;;;31.95;18.17;;;;;;;9.34;73.11;98874.59;4933599;29;20568;-82
2021/10/02 06:37:05;;;;;;;28.13;17.35;;;;;;;9.43;72.82;98868.53;4951111;29;20407;-83
2021/10/02 06:39:31;;;;;;;28.10;16.92;;;;;;;9.52;73.40;98872.34;4949293;29;20031;-83
2021/10/02 06:41:56;;;;;;;28.80;17.80;;;;;;;9.61;73.04;98873.41;4933488;29;20040;-83
2021/10/02 06:44:21;;;;;;;35.53;18.90;;;;;;;9.71;72.68;98867.06;4951435;29;20530;-81
2021/10/02 06:46:47;;;;;;;38.22;20.90;;;;;;;9.83;72.83;98873.06;4952215;29;20102;-82
2021/10/02 06:49:12;;;;;;;32.33;18.33;;;;;;;9.93;72.68;98876.84;4952941;29;20027;-83
2021/10/02 06:51:38;;;;;;;36.00;19.45;;;;;;;10.00;73.62;98866.38;4951333;28;20042;-83
2021/10/02 06:54:04;;;;;;;31.90;19.88;;;;;;;10.09;72.99;98885.81;4954415;29;20105;-83
2021/10/02 06:56:29;;;;;;;29.58;19.52;;;;;;;10.20;72.78;98873.66;4928495;29;20055;-83
2021/10/02 06:58:54;;;;;;;29.27;17.90;;;;;;;10.30;72.79;98869.22;4924907;28;20031;-84
2021/10/02 07:01:20;;;;;;;31.17;19.08;;;;;;;10.40;73.33;98874.69;4928144;29;20453;-83
2021/10/02 07:03:45;;;;;;;32.90;18.98;;;;;;;10.48;73.11;98876.81;4930926;29;20055;-84
2021/10/02 07:06:11;;;;;;;31.95;18.10;;;;;;;10.57;73.02;98879.75;4931147;29;20148;-84
2021/10/02 07:08:36;;;;;;;28.17;16.80;;;;;;;10.65;73.12;98868.19;4931305;29;20457;-84
2021/10/02 07:11:02;;;;;;;29.40;17.52;;;;;;;10.76;72.59;98874.41;4931591;29;20027;-83
2021/10/02 07:13:27;;;;;;;29.25;18.23;;;;;;;10.87;72.78;98875.13;4934294;29;20587;-82
2021/10/02 07:15:53;;;;;;;29.77;17.55;;;;;;;10.97;73.47;98872.28;4930205;29;20528;-83
2021/10/02 07:18:18;;;;;;;26.38;16.70;;;;;;;11.08;72.98;98867.53;4921640;29;20440;-82
2021/10/02 07:20:44;;;;;;;22.92;15.30;;;;;;;11.19;73.54;98868.25;4922445;29;20028;-82
2021/10/02 07:23:09;;;;;;;26.23;16.67;;;;;;;11.31;73.17;98881.59;4928602;29;20047;-83
2021/10/02 07:25:34;;;;;;;31.08;17.40;;;;;;;11.41;73.45;98869.66;4932646;29;20035;-83
2021/10/02 07:28:00;;;;;;;24.90;15.45;;;;;;;11.53;73.27;98872.00;4932434;29;20625;-81
2021/10/02 07:30:26;;;;;;;25.38;15.25;;;;;;;11.63;72.68;98874.63;4931234;29;20031;-81
2021/10/02 07:32:52;;;;;;;28.27;15.85;;;;;;;11.72;73.64;98877.53;4931866;28;20712;-81
2021/10/02 07:35:17;;;;;;;25.17;15.60;;;;;;;11.82;72.64;98876.63;4928709;29;20043;-81
2021/10/02 07:37:43;;;;;;;25.30;15.55;;;;;;;11.92;72.93;98870.97;4925384;29;20027;-80
2021/10/02 07:40:11;;;;;;;26.60;17.17;;;;;;;12.02;72.48;98872.81;4922370;29;20031;-80
2021/10/02 07:42:38;;;;;;;22.60;15.00;;;;;;;12.13;72.70;98866.03;4924678;29;20030;-83
2021/10/02 07:45:09;;;;;;;23.92;14.65;;;;;;;12.25;72.69;98871.09;4929367;29;20027;-83
2021/10/02 07:47:43;;;;;;;24.10;15.30;;;;;;;12.32;72.39;98871.53;4931397;29;20890;-82
2021/10/02 07:50:10;;;;;;;27.67;15.23;;;;;;;12.40;72.70;98867.31;4930320;29;20590;-81
2021/10/02 07:52:38;;;;;;;25.50;14.00;;;;;;;12.48;72.69;98874.06;4929666;29;20032;-80
2021/10/02 07:55:07;;;;;;;22.83;14.65;;;;;;;12.57;72.61;98865.94;4929535;29;20024;-80
2021/10/02 07:57:33;;;;;;;28.23;14.57;;;;;;;12.66;72.42;98875.97;4929491;29;20484;-82
2021/10/02 07:59:59;;;;;;;24.30;15.32;;;;;;;12.77;72.29;98875.81;4918884;29;20046;-83
2021/10/02 08:02:25;;;;;;;24.45;15.05;;;;;;;12.88;72.25;98870.94;4920171;29;20683;-81
2021/10/02 08:04:50;;;;;;;23.27;15.43;;;;;;;12.99;72.11;98869.66;4926561;28;20035;-80
2021/10/02 08:07:18;;;;;;;22.85;13.68;;;;;;;13.07;71.90;98868.97;4930021;29;20630;-82
2021/10/02 08:09:43;;;;;;;27.73;15.07;;;;;;;13.19;71.77;98875.94;4931347;29;20031;-80
2021/10/02 08:12:09;;;;;;;22.83;14.13;;;;;;;13.30;70.95;98873.81;4930811;29;20028;-80
2021/10/02 08:14:35;;;;;;;25.48;15.05;;;;;;;13.37;71.01;98871.47;4930723;28;20027;-78
2021/10/02 08:17:02;;;;;;;27.60;14.15;;;;;;;13.46;70.95;98868.84;4930508;28;20042;-82
2021/10/02 08:19:30;;;;;;;21.80;13.48;;;;;;;13.56;70.51;98871.41;4926695;29;20461;-83
2021/10/02 08:21:56;;;;;;;23.23;13.57;;;;;;;13.64;70.53;98873.44;4921181;28;20481;-82
2021/10/02 08:24:25;;;;;;;21.27;11.60;;;;;;;13.75;70.65;98873.22;4923959;29;20020;-80
2021/10/02 08:26:53;;;;;;;20.67;12.15;;;;;;;13.89;69.96;98865.75;4928745;29;20024;-83
2021/10/02 08:29:21;;;;;;;17.60;10.70;;;;;;;14.02;69.33;98868.81;4929667;28;20045;-84
2021/10/02 08:31:46;;;;;;;18.30;11.63;;;;;;;14.12;69.14;98871.31;4930215;28;20103;-83
2021/10/02 08:34:11;;;;;;;16.42;11.52;;;;;;;14.22;68.71;98871.09;4928877;29;20171;-80
2021/10/02 08:36:37;;;;;;;18.98;10.82;;;;;;;14.32;67.49;98878.34;4926036;29;20732;-85
2021/10/02 08:39:02;;;;;;;21.08;11.60;;;;;;;14.39;67.89;98869.66;4923443;29;20031;-81
2021/10/02 08:41:28;;;;;;;16.08;10.27;;;;;;;14.49;67.28;98872.16;4921401;29;20345;-81
2021/10/02 08:43:54;;;;;;;17.95;10.23;;;;;;;14.57;67.31;98876.91;4919878;29;20028;-80
2021/10/02 08:46:20;;;;;;;19.33;10.90;;;;;;;14.69;67.81;98862.59;4923820;29;20031;-81
2021/10/02 08:49:25;;;;;;;21.45;10.63;;;;;;;14.81;67.66;98862.03;4922901;29;20602;-84
2021/10/02 08:51:51;;;;;;;14.77;9.50;;;;;;;14.95;67.31;98872.19;4924922;29;20039;-81
2021/10/02 08:54:18;;;;;;;14.43;9.48;;;;;;;15.05;66.73;98865.59;4929547;29;20704;-85
2021/10/02 08:56:45;;;;;;;17.02;9.70;;;;;;;15.14;66.12;98869.19;4929097;28;20035;-85
2021/10/02 08:59:13;;;;;;;16.02;9.32;;;;;;;15.22;66.59;98864.88;4928632;29;20469;-84
2021/10/02 09:01:40;;;;;;;14.45;8.98;;;;;;;15.31;66.19;98869.31;4923502;29;20019;-85
2021/10/02 09:04:06;;;;;;;16.90;9.65;;;;;;;15.39;65.24;98864.94;4919898;29;20047;-88
2021/10/02 09:06:33;;;;;;;14.73;9.27;;;;;;;15.46;64.77;98850.69;4915851;29;20097;-88
2021/10/02 09:09:00;;;;;;;16.40;9.57;;;;;;;15.53;63.12;98858.50;4936880;29;20043;-88
2021/10/02 09:11:27;;;;;;;14.38;8.60;;;;;;;15.58;61.72;98863.88;4931910;29;20534;-87
2021/10/02 09:13:54;;;;;;;13.18;8.15;;;;;;;15.56;62.13;98857.88;4930746;29;20058;-82
2021/10/02 09:16:20;;;;;;;15.43;8.85;;;;;;;15.55;61.27;98859.78;4926663;29;20624;-89
2021/10/02 09:18:46;;;;;;;15.40;8.90;;;;;;;15.57;61.27;98856.72;4929308;29;20103;-85
2021/10/02 09:21:12;;;;;;;12.88;8.60;;;;;;;15.60;61.73;98853.31;4912172;29;20046;-85
2021/10/02 09:23:42;;;;;;;15.50;8.63;;;;;;;15.66;61.71;98853.97;4915557;29;20028;-91
2021/10/02 09:26:08;;;;;;;15.40;8.77;;;;;;;15.72;60.74;98847.19;4913368;29;21028;-88
2021/10/02 09:28:39;;;;;;;15.70;7.95;;;;;;;15.77;60.89;98847.81;4912874;29;20039;-85
2021/10/02 09:31:05;;;;;;;13.50;8.10;;;;;;;15.84;60.67;98841.84;4930003;29;20452;-87
2021/10/02 09:33:32;;;;;;;12.18;8.48;;;;;;;15.92;59.65;98841.06;4932782;29;20038;-88
2021/10/02 09:35:57;;;;;;;15.50;8.98;;;;;;;15.96;60.09;98851.47;4928367;28;20031;-85
2021/10/02 09:38:23;;;;;;;14.65;7.72;;;;;;;16.01;59.87;98852.16;4935214;28;20061;-86
2021/10/02 09:40:59;;;;;;;11.30;7.90;;;;;;;16.07;59.72;98850.88;4910279;29;20043;-86
2021/10/02 09:43:26;;;;;;;16.27;8.38;;;;;;;16.17;60.07;98849.72;4925769;29;20028;-83
2021/10/02 09:45:52;;;;;;;10.05;7.28;;;;;;;16.27;59.02;98847.78;4923033;29;20134;-83
2021/10/02 09:48:29;;;;;;;11.63;8.07;;;;;;;16.31;57.75;98844.03;4921123;28;20031;-77
2021/10/02 09:51:05;;;;;;;15.90;8.95;;;;;;;16.34;57.08;98846.16;4927000;29;20035;-81
2021/10/02 09:53:41;;;;;;;12.90;7.70;;;;;;;16.33;57.60;98838.16;4928860;28;20039;-82
2021/10/02 09:56:09;;;;;;;14.73;9.23;;;;;;;16.39;56.73;98841.59;4927471;29;20130;-80
2021/10/02 09:58:36;;;;;;;13.65;8.30;;;;;;;16.41;56.34;98842.91;4926315;29;20501;-80
2021/10/02 10:01:04;;;;;;;12.57;7.35;;;;;;;16.45;55.60;98835.56;4926013;28;20417;-79
2021/10/02 10:03:59;;;;;;;14.32;8.60;;;;;;;16.49;56.36;98835.75;4927562;28;20701;-82
2021/10/02 10:06:27;;;;;;;18.27;7.90;;;;;;;16.57;56.91;98828.56;4895843;29;20040;-82
2021/10/02 10:09:06;;;;;;;12.95;8.77;;;;;;;16.65;55.70;98842.41;4920543;29;20123;-80
2021/10/02 10:11:52;;;;;;;14.40;8.70;;;;;;;16.70;56.07;98838.66;4926742;29;20310;-81
2021/10/02 10:14:26;;;;;;;13.98;8.15;;;;;;;16.80;56.37;98837.50;4927453;29;20043;-81
2021/10/02 10:16:53;;;;;;;13.02;7.10;;;;;;;16.86;56.93;98838.97;4927743;29;20043;-80
2021/10/02 10:19:29;;;;;;;14.20;8.10;;;;;;;16.93;55.10;98832.91;4928645;29;20103;-83
2021/10/02 10:22:18;;;;;;;12.23;7.40;;;;;;;16.94;54.76;98827.03;4928812;29;20134;-83
2021/10/02 10:25:08;;;;;;;12.13;7.50;;;;;;;16.99;54.85;98822.47;4927838;29;20402;-79
2021/10/02 10:27:40;;;;;;;11.85;7.57;;;;;;;17.03;54.66;98817.91;4911991;29;20047;-81
2021/10/02 10:30:13;;;;;;;12.57;7.32;;;;;;;17.08;54.04;98818.56;4918729;29;20090;-80
2021/10/02 10:32:54;;;;;;;11.32;7.20;;;;;;;17.08;53.50;98821.31;4931930;29;20027;-81
2021/10/02 10:35:20;;;;;;;11.43;7.50;;;;;;;17.09;53.96;98817.41;4931668;29;20039;-81
2021/10/02 10:37:47;;;;;;;10.48;7.85;;;;;;;17.17;52.85;98824.06;4932308;29;20023;-83
2021/10/02 10:40:14;;;;;;;11.70;7.35;;;;;;;17.22;53.38;98836.91;4932269;29;20035;-82
2021/10/02 10:42:40;;;;;;;10.05;7.38;;;;;;;17.24;52.43;98815.22;4934195;29;20614;-82
2021/10/02 10:45:06;;;;;;;11.88;7.18;;;;;;;17.30;52.01;98824.19;4933135;28;20031;-81
2021/10/02 10:47:32;;;;;;;9.38;7.53;;;;;;;17.33;52.19;98824.31;4924672;29;20051;-81
2021/10/02 10:49:57;;;;;;;11.35;7.68;;;;;;;17.37;53.36;98819.75;4922456;29;20055;-83
2021/10/02 10:52:24;;;;;;;11.85;7.20;;;;;;;17.45;52.05;98822.81;4907106;29;20027;-78
2021/10/02 10:54:52;;;;;;;12.57;7.43;;;;;;;17.49;52.88;98821.00;4932770;29;20031;-79
2021/10/02 10:57:35;;;;;;;9.32;7.20;;;;;;;17.59;51.19;98825.34;4931701;29;20035;-78
2021/10/02 11:00:06;;;;;;;13.70;7.60;;;;;;;17.62;50.37;98816.38;4930751;29;20094;-82
2021/10/02 11:02:54;;;;;;;12.70;7.40;;;;;;;17.62;51.73;98808.84;4928454;29;20472;-78
2021/10/02 11:05:35;;;;;;;12.13;7.55;;;;;;;17.68;51.14;98815.84;4931379;29;20091;-79
2021/10/02 11:08:02;;;;;;;12.93;7.10;;;;;;;17.75;51.65;98811.72;4927143;29;20285;-80
2021/10/02 11:10:42;;;;;;;12.88;8.02;;;;;;;17.84;51.37;98807.72;4921402;29;20047;-78
2021/10/02 11:13:20;;;;;;;8.98;6.57;;;;;;;17.94;51.26;98800.97;4908262;29;20094;-79
2021/10/02 11:15:48;;;;;;;12.40;7.65;;;;;;;17.99;50.13;98797.22;4931642;28;20051;-81
2021/10/02 11:18:46;;;;;;;10.10;7.10;;;;;;;18.06;50.97;98793.91;4930809;28;20039;-81
2021/10/02 11:21:17;;;;;;;9.38;6.30;;;;;;;18.19;50.83;98800.34;4930793;29;20478;-83
2021/10/02 11:24:14;;;;;;;12.70;6.80;;;;;;;18.27;50.56;98791.13;4932655;29;20028;-80
2021/10/02 11:26:56;;;;;;;8.32;6.35;;;;;;;18.32;49.56;98790.13;4929052;29;20114;-75
2021/10/02 11:29:31;;;;;;;11.40;6.88;;;;;;;18.33;49.03;98795.31;4906350;29;20303;-77
2021/10/02 11:32:21;;;;;;;14.38;7.03;;;;;;;18.34;48.94;98794.16;4904585;29;20703;-74
2021/10/02 11:35:09;;;;;;;9.35;6.03;;;;;;;18.40;49.62;98801.16;4926346;29;20038;-74
2021/10/02 11:37:42;;;;;;;8.30;6.63;;;;;;;18.49;48.14;98791.94;4928040;28;20201;-75
2021/10/02 11:40:32;;;;;;;9.63;6.68;;;;;;;18.54;48.66;98794.50;4928896;29;20039;-76
2021/10/02 11:43:23;;;;;;;9.25;6.10;;;;;;;18.61;48.48;98794.72;4931335;29;20036;-75
2021/10/02 11:45:49;;;;;;;10.88;6.15;;;;;;;18.66;49.04;98794.53;4931393;29;20042;-75
2021/10/02 11:48:19;;;;;;;10.57;6.53;;;;;;;18.74;48.29;98795.59;4929753;29;20464;-75
2021/10/02 11:51:06;;;;;;;10.10;6.22;;;;;;;18.83;49.22;98792.72;4915905;29;20646;-74
2021/10/02 11:53:42;;;;;;;8.75;6.25;;;;;;;18.86;46.96;98786.50;4915327;29;20638;-74
2021/10/02 11:56:19;;;;;;;9.93;6.32;;;;;;;18.85;47.11;98791.22;4926205;29;20519;-75
2021/10/02 11:58:46;;;;;;;11.30;5.80;;;;;;;18.93;48.32;98791.47;4911322;29;20424;-76
2021/10/02 12:01:17;;;;;;;10.20;6.85;;;;;;;19.07;48.09;98783.66;4928403;29;20503;-76
2021/10/02 12:03:42;;;;;;;10.57;6.35;;;;;;;19.23;48.10;98785.75;4929485;29;21485;-82
2021/10/02 12:06:08;;;;;;;9.25;6.28;;;;;;;19.35;46.59;98774.63;4928894;29;20027;-67
2021/10/02 12:08:34;;;;;;;11.05;6.78;;;;;;;19.49;46.84;98768.72;4928168;29;20055;-82
2021/10/02 12:11:04;;;;;;;13.70;6.40;;;;;;;19.63;46.69;98766.41;4923312;29;20044;-74
2021/10/02 12:13:42;;;;;;;10.98;7.00;;;;;;;19.71;45.78;98761.84;4919199;29;20052;-72
2021/10/02 12:16:11;;;;;;;8.32;6.22;;;;;;;19.71;45.16;98761.06;4918907;29;20695;-74
2021/10/02 12:18:45;;;;;;;8.95;6.05;;;;;;;19.63;44.99;98768.34;4928406;28;20040;-71
2021/10/02 12:21:22;;;;;;;9.55;6.32;;;;;;;19.57;44.98;98764.19;4925857;29;20035;-68
2021/10/02 12:24:07;;;;;;;10.55;7.07;;;;;;;19.56;45.58;98759.81;4926435;29;20082;-69
2021/10/02 12:26:40;;;;;;;11.02;6.75;;;;;;;19.54;45.49;98760.13;4927889;29;20039;-69
2021/10/02 12:29:08;;;;;;;9.38;6.32;;;;;;;19.47;45.39;98754.34;4926875;29;20663;-68